sensor_id;sensor_type;location;lat;lon;timestamp;temperature;humidity
13569;DHT22;6856;51.460;7.158;2024-03-07T00:01:40;9.60;59.80
13569;DHT22;6856;51.460;7.158;2024-03-07T00:04:14;9.60;59.70
13569;DHT22;6856;51.460;7.158;2024-03-07T00:06:48;9.50;59.50
13569;DHT22;6856;51.460;7.158;2024-03-07T00:09:22;9.50;59.50
13569;DHT22;6856;51.460;7.158;2024-03-07T00:11:56;9.50;59.50
13569;DHT22;6856;51.460;7.158;2024-03-07T00:14:36;9.40;59.50
13569;DHT22;6856;51.460;7.158;2024-03-07T00:17:09;9.40;59.50
13569;DHT22;6856;51.460;7.158;2024-03-07T00:19:45;9.40;59.60
13569;DHT22;6856;51.460;7.158;2024-03-07T00:22:20;9.40;59.50
13569;DHT22;6856;51.460;7.158;2024-03-07T00:24:54;9.30;59.50
13569;DHT22;6856;51.460;7.158;2024-03-07T00:27:28;9.30;59.50
13569;DHT22;6856;51.460;7.158;2024-03-07T00:30:05;9.30;59.50
13569;DHT22;6856;51.460;7.158;2024-03-07T00:32:41;9.20;59.50
13569;DHT22;6856;51.460;7.158;2024-03-07T00:35:15;9.20;59.50
13569;DHT22;6856;51.460;7.158;2024-03-07T00:37:51;9.20;59.50
13569;DHT22;6856;51.460;7.158;2024-03-07T00:40:25;9.10;59.30
13569;DHT22;6856;51.460;7.158;2024-03-07T00:43:00;9.10;60.10
13569;DHT22;6856;51.460;7.158;2024-03-07T00:45:35;9.10;59.40
13569;DHT22;6856;51.460;7.158;2024-03-07T00:48:11;9.00;59.30
13569;DHT22;6856;51.460;7.158;2024-03-07T00:50:48;9.00;59.50
13569;DHT22;6856;51.460;7.158;2024-03-07T00:53:21;9.00;59.40
13569;DHT22;6856;51.460;7.158;2024-03-07T00:55:56;9.00;59.50
13569;DHT22;6856;51.460;7.158;2024-03-07T00:58:30;8.90;59.50
13569;DHT22;6856;51.460;7.158;2024-03-07T01:01:05;8.90;59.50
13569;DHT22;6856;51.460;7.158;2024-03-07T01:03:39;8.90;59.50
13569;DHT22;6856;51.460;7.158;2024-03-07T01:06:14;8.80;59.50
13569;DHT22;6856;51.460;7.158;2024-03-07T01:08:49;8.80;59.60
13569;DHT22;6856;51.460;7.158;2024-03-07T01:11:24;8.80;59.60
13569;DHT22;6856;51.460;7.158;2024-03-07T01:13:59;8.70;59.50
13569;DHT22;6856;51.460;7.158;2024-03-07T01:16:37;8.70;59.50
13569;DHT22;6856;51.460;7.158;2024-03-07T01:19:11;8.70;59.50
13569;DHT22;6856;51.460;7.158;2024-03-07T01:21:46;8.60;59.50
13569;DHT22;6856;51.460;7.158;2024-03-07T01:24:20;8.60;59.40
13569;DHT22;6856;51.460;7.158;2024-03-07T01:26:56;8.60;59.40
13569;DHT22;6856;51.460;7.158;2024-03-07T01:29:33;8.60;59.40
13569;DHT22;6856;51.460;7.158;2024-03-07T01:32:10;8.50;59.50
13569;DHT22;6856;51.460;7.158;2024-03-07T01:34:46;8.50;59.60
13569;DHT22;6856;51.460;7.158;2024-03-07T01:37:20;8.50;59.50
13569;DHT22;6856;51.460;7.158;2024-03-07T01:39:54;8.50;59.50
13569;DHT22;6856;51.460;7.158;2024-03-07T01:42:28;8.40;59.50
13569;DHT22;6856;51.460;7.158;2024-03-07T01:45:02;8.40;59.60
13569;DHT22;6856;51.460;7.158;2024-03-07T01:47:39;8.40;59.60
13569;DHT22;6856;51.460;7.158;2024-03-07T01:50:14;8.50;59.60
13569;DHT22;6856;51.460;7.158;2024-03-07T01:52:50;8.30;59.60
13569;DHT22;6856;51.460;7.158;2024-03-07T01:55:27;8.30;59.60
13569;DHT22;6856;51.460;7.158;2024-03-07T01:58:03;8.30;59.60
13569;DHT22;6856;51.460;7.158;2024-03-07T02:00:39;8.20;59.70
13569;DHT22;6856;51.460;7.158;2024-03-07T02:03:14;8.20;59.60
13569;DHT22;6856;51.460;7.158;2024-03-07T02:05:49;8.20;59.70
13569;DHT22;6856;51.460;7.158;2024-03-07T02:08:25;8.30;59.90
13569;DHT22;6856;51.460;7.158;2024-03-07T02:10:59;8.10;59.70
13569;DHT22;6856;51.460;7.158;2024-03-07T02:13:33;8.10;59.80
13569;DHT22;6856;51.460;7.158;2024-03-07T02:16:08;8.10;59.80
13569;DHT22;6856;51.460;7.158;2024-03-07T02:18:44;8.10;59.80
13569;DHT22;6856;51.460;7.158;2024-03-07T02:21:21;8.00;59.70
13569;DHT22;6856;51.460;7.158;2024-03-07T02:23:58;8.00;59.70
13569;DHT22;6856;51.460;7.158;2024-03-07T02:26:33;8.00;59.70
13569;DHT22;6856;51.460;7.158;2024-03-07T02:29:07;8.00;59.90
13569;DHT22;6856;51.460;7.158;2024-03-07T02:31:43;7.90;59.80
13569;DHT22;6856;51.460;7.158;2024-03-07T02:34:17;7.90;59.70
13569;DHT22;6856;51.460;7.158;2024-03-07T02:36:56;8.10;60.00
13569;DHT22;6856;51.460;7.158;2024-03-07T02:39:31;8.00;59.90
13569;DHT22;6856;51.460;7.158;2024-03-07T02:42:05;7.80;59.80
13569;DHT22;6856;51.460;7.158;2024-03-07T02:44:39;7.80;59.80
13569;DHT22;6856;51.460;7.158;2024-03-07T02:47:13;7.80;59.80
13569;DHT22;6856;51.460;7.158;2024-03-07T02:49:48;7.70;59.80
13569;DHT22;6856;51.460;7.158;2024-03-07T02:52:24;7.70;59.70
13569;DHT22;6856;51.460;7.158;2024-03-07T02:54:59;7.70;59.80
13569;DHT22;6856;51.460;7.158;2024-03-07T02:57:35;7.70;59.80
13569;DHT22;6856;51.460;7.158;2024-03-07T03:00:11;7.80;59.80
13569;DHT22;6856;51.460;7.158;2024-03-07T03:02:55;7.60;59.70
13569;DHT22;6856;51.460;7.158;2024-03-07T03:05:29;7.60;59.70
13569;DHT22;6856;51.460;7.158;2024-03-07T03:08:06;7.80;59.80
13569;DHT22;6856;51.460;7.158;2024-03-07T03:10:40;7.50;59.70
13569;DHT22;6856;51.460;7.158;2024-03-07T03:13:16;7.50;59.80
13569;DHT22;6856;51.460;7.158;2024-03-07T03:15:50;7.50;60.00
13569;DHT22;6856;51.460;7.158;2024-03-07T03:18:26;7.50;59.80
13569;DHT22;6856;51.460;7.158;2024-03-07T03:21:01;7.50;59.90
13569;DHT22;6856;51.460;7.158;2024-03-07T03:23:38;7.50;60.10
13569;DHT22;6856;51.460;7.158;2024-03-07T03:26:15;7.40;60.00
13569;DHT22;6856;51.460;7.158;2024-03-07T03:28:49;7.40;60.00
13569;DHT22;6856;51.460;7.158;2024-03-07T03:31:24;7.60;60.20
13569;DHT22;6856;51.460;7.158;2024-03-07T03:33:59;7.40;60.20
13569;DHT22;6856;51.460;7.158;2024-03-07T03:36:33;7.40;60.20
13569;DHT22;6856;51.460;7.158;2024-03-07T03:39:09;7.40;60.20
13569;DHT22;6856;51.460;7.158;2024-03-07T03:41:45;7.40;60.40
13569;DHT22;6856;51.460;7.158;2024-03-07T03:44:19;7.40;60.50
13569;DHT22;6856;51.460;7.158;2024-03-07T03:46:54;7.30;60.40
13569;DHT22;6856;51.460;7.158;2024-03-07T03:49:27;7.30;60.60
13569;DHT22;6856;51.460;7.158;2024-03-07T03:52:01;7.30;60.50
13569;DHT22;6856;51.460;7.158;2024-03-07T03:54:36;7.30;60.50
13569;DHT22;6856;51.460;7.158;2024-03-07T03:57:10;7.30;60.50
13569;DHT22;6856;51.460;7.158;2024-03-07T03:59:44;7.30;60.60
13569;DHT22;6856;51.460;7.158;2024-03-07T04:02:17;7.30;60.60
13569;DHT22;6856;51.460;7.158;2024-03-07T04:04:52;7.30;60.70
13569;DHT22;6856;51.460;7.158;2024-03-07T04:07:27;7.30;60.80
13569;DHT22;6856;51.460;7.158;2024-03-07T04:10:04;7.20;60.60
13569;DHT22;6856;51.460;7.158;2024-03-07T04:12:40;7.20;60.80
13569;DHT22;6856;51.460;7.158;2024-03-07T04:15:15;7.40;60.90
13569;DHT22;6856;51.460;7.158;2024-03-07T04:17:52;7.20;60.80
13569;DHT22;6856;51.460;7.158;2024-03-07T04:20:27;7.20;60.80
13569;DHT22;6856;51.460;7.158;2024-03-07T04:23:00;7.20;60.70
13569;DHT22;6856;51.460;7.158;2024-03-07T04:25:37;7.20;60.70
13569;DHT22;6856;51.460;7.158;2024-03-07T04:28:11;7.10;60.60
13569;DHT22;6856;51.460;7.158;2024-03-07T04:30:45;7.10;60.60
13569;DHT22;6856;51.460;7.158;2024-03-07T04:33:21;7.10;60.40
13569;DHT22;6856;51.460;7.158;2024-03-07T04:35:56;7.10;60.40
13569;DHT22;6856;51.460;7.158;2024-03-07T04:38:30;7.20;60.30
13569;DHT22;6856;51.460;7.158;2024-03-07T04:41:05;7.00;60.20
13569;DHT22;6856;51.460;7.158;2024-03-07T04:43:40;7.00;60.10
13569;DHT22;6856;51.460;7.158;2024-03-07T04:46:15;7.00;60.00
13569;DHT22;6856;51.460;7.158;2024-03-07T04:48:49;7.00;60.00
13569;DHT22;6856;51.460;7.158;2024-03-07T04:51:23;6.90;60.00
13569;DHT22;6856;51.460;7.158;2024-03-07T04:53:57;6.90;60.00
13569;DHT22;6856;51.460;7.158;2024-03-07T04:56:32;6.90;60.00
13569;DHT22;6856;51.460;7.158;2024-03-07T04:59:06;6.90;60.00
13569;DHT22;6856;51.460;7.158;2024-03-07T05:01:40;6.80;59.90
13569;DHT22;6856;51.460;7.158;2024-03-07T05:04:16;6.80;60.00
13569;DHT22;6856;51.460;7.158;2024-03-07T05:06:52;6.80;60.10
13569;DHT22;6856;51.460;7.158;2024-03-07T05:09:26;6.80;60.00
13569;DHT22;6856;51.460;7.158;2024-03-07T05:12:04;6.70;60.00
13569;DHT22;6856;51.460;7.158;2024-03-07T05:14:39;6.70;59.80
13569;DHT22;6856;51.460;7.158;2024-03-07T05:17:14;6.70;60.10
13569;DHT22;6856;51.460;7.158;2024-03-07T05:19:54;6.70;59.80
13569;DHT22;6856;51.460;7.158;2024-03-07T05:22:27;6.70;60.30
13569;DHT22;6856;51.460;7.158;2024-03-07T05:25:03;6.70;60.30
13569;DHT22;6856;51.460;7.158;2024-03-07T05:27:39;6.70;60.50
13569;DHT22;6856;51.460;7.158;2024-03-07T05:30:13;6.60;60.30
13569;DHT22;6856;51.460;7.158;2024-03-07T05:32:48;6.60;60.40
13569;DHT22;6856;51.460;7.158;2024-03-07T05:35:25;6.40;60.40
13569;DHT22;6856;51.460;7.158;2024-03-07T05:38:01;6.60;60.70
13569;DHT22;6856;51.460;7.158;2024-03-07T05:40:38;6.60;60.70
13569;DHT22;6856;51.460;7.158;2024-03-07T05:43:16;6.60;60.60
13569;DHT22;6856;51.460;7.158;2024-03-07T05:45:54;6.60;60.70
13569;DHT22;6856;51.460;7.158;2024-03-07T05:48:28;6.50;60.70
13569;DHT22;6856;51.460;7.158;2024-03-07T05:51:04;6.50;60.90
13569;DHT22;6856;51.460;7.158;2024-03-07T05:53:39;6.50;60.80
13569;DHT22;6856;51.460;7.158;2024-03-07T05:56:38;6.50;60.80
13569;DHT22;6856;51.460;7.158;2024-03-07T05:59:15;6.50;61.00
13569;DHT22;6856;51.460;7.158;2024-03-07T06:01:49;6.50;60.80
13569;DHT22;6856;51.460;7.158;2024-03-07T06:04:24;6.50;60.90
13569;DHT22;6856;51.460;7.158;2024-03-07T06:07:00;6.50;60.80
13569;DHT22;6856;51.460;7.158;2024-03-07T06:09:34;6.50;60.80
13569;DHT22;6856;51.460;7.158;2024-03-07T06:12:08;6.50;61.10
13569;DHT22;6856;51.460;7.158;2024-03-07T06:14:55;6.50;61.00
13569;DHT22;6856;51.460;7.158;2024-03-07T06:17:30;6.50;60.90
13569;DHT22;6856;51.460;7.158;2024-03-07T06:20:06;6.40;61.00
13569;DHT22;6856;51.460;7.158;2024-03-07T06:22:55;6.40;61.00
13569;DHT22;6856;51.460;7.158;2024-03-07T06:25:30;6.40;61.00
13569;DHT22;6856;51.460;7.158;2024-03-07T06:28:10;6.40;60.90
13569;DHT22;6856;51.460;7.158;2024-03-07T06:30:46;6.40;61.70
13569;DHT22;6856;51.460;7.158;2024-03-07T06:33:25;6.40;61.00
13569;DHT22;6856;51.460;7.158;2024-03-07T06:36:01;6.40;61.00
13569;DHT22;6856;51.460;7.158;2024-03-07T06:38:35;6.40;61.10
13569;DHT22;6856;51.460;7.158;2024-03-07T06:41:09;6.40;61.10
13569;DHT22;6856;51.460;7.158;2024-03-07T06:43:43;6.40;61.20
13569;DHT22;6856;51.460;7.158;2024-03-07T06:46:19;6.40;61.40
13569;DHT22;6856;51.460;7.158;2024-03-07T06:48:53;6.50;61.10
13569;DHT22;6856;51.460;7.158;2024-03-07T06:51:31;6.40;61.60
13569;DHT22;6856;51.460;7.158;2024-03-07T06:54:05;6.40;61.60
13569;DHT22;6856;51.460;7.158;2024-03-07T06:56:41;6.40;61.60
13569;DHT22;6856;51.460;7.158;2024-03-07T06:59:15;6.40;61.80
13569;DHT22;6856;51.460;7.158;2024-03-07T07:01:56;6.40;61.90
13569;DHT22;6856;51.460;7.158;2024-03-07T07:04:30;6.40;61.80
13569;DHT22;6856;51.460;7.158;2024-03-07T07:07:14;6.40;62.20
13569;DHT22;6856;51.460;7.158;2024-03-07T07:09:47;6.40;62.20
13569;DHT22;6856;51.460;7.158;2024-03-07T07:12:24;6.40;62.40
13569;DHT22;6856;51.460;7.158;2024-03-07T07:15:00;6.40;62.50
13569;DHT22;6856;51.460;7.158;2024-03-07T07:17:35;6.40;62.70
13569;DHT22;6856;51.460;7.158;2024-03-07T07:20:10;6.50;62.90
13569;DHT22;6856;51.460;7.158;2024-03-07T07:22:47;6.50;64.00
13569;DHT22;6856;51.460;7.158;2024-03-07T07:25:26;6.50;63.30
13569;DHT22;6856;51.460;7.158;2024-03-07T07:28:03;6.50;63.30
13569;DHT22;6856;51.460;7.158;2024-03-07T07:30:40;6.50;63.60
13569;DHT22;6856;51.460;7.158;2024-03-07T07:33:18;6.50;63.80
13569;DHT22;6856;51.460;7.158;2024-03-07T07:35:52;6.60;63.70
13569;DHT22;6856;51.460;7.158;2024-03-07T07:38:26;6.60;64.10
13569;DHT22;6856;51.460;7.158;2024-03-07T07:41:04;6.60;64.40
13569;DHT22;6856;51.460;7.158;2024-03-07T07:43:39;6.60;64.30
13569;DHT22;6856;51.460;7.158;2024-03-07T07:46:15;6.70;64.50
13569;DHT22;6856;51.460;7.158;2024-03-07T07:48:50;6.70;64.60
13569;DHT22;6856;51.460;7.158;2024-03-07T07:51:26;6.80;64.70
13569;DHT22;6856;51.460;7.158;2024-03-07T07:54:01;6.80;65.00
13569;DHT22;6856;51.460;7.158;2024-03-07T07:56:37;6.80;64.90
13569;DHT22;6856;51.460;7.158;2024-03-07T07:59:12;6.90;65.10
13569;DHT22;6856;51.460;7.158;2024-03-07T08:01:46;6.90;64.90
13569;DHT22;6856;51.460;7.158;2024-03-07T08:04:23;7.00;65.20
13569;DHT22;6856;51.460;7.158;2024-03-07T08:06:58;7.00;65.20
13569;DHT22;6856;51.460;7.158;2024-03-07T08:09:32;7.10;65.20
13569;DHT22;6856;51.460;7.158;2024-03-07T08:12:06;7.30;65.40
13569;DHT22;6856;51.460;7.158;2024-03-07T08:14:42;7.20;65.60
13569;DHT22;6856;51.460;7.158;2024-03-07T08:17:17;7.20;65.60
13569;DHT22;6856;51.460;7.158;2024-03-07T08:19:54;7.30;65.80
13569;DHT22;6856;51.460;7.158;2024-03-07T08:22:28;7.40;66.00
13569;DHT22;6856;51.460;7.158;2024-03-07T08:25:02;7.50;65.90
13569;DHT22;6856;51.460;7.158;2024-03-07T08:27:44;7.60;65.90
13569;DHT22;6856;51.460;7.158;2024-03-07T08:30:20;7.60;65.70
13569;DHT22;6856;51.460;7.158;2024-03-07T08:32:55;7.70;65.50
13569;DHT22;6856;51.460;7.158;2024-03-07T08:35:33;7.80;65.20
13569;DHT22;6856;51.460;7.158;2024-03-07T08:38:07;7.90;65.00
13569;DHT22;6856;51.460;7.158;2024-03-07T08:40:41;7.90;65.50
13569;DHT22;6856;51.460;7.158;2024-03-07T08:43:17;8.00;64.70
13569;DHT22;6856;51.460;7.158;2024-03-07T08:45:51;8.00;64.60
13569;DHT22;6856;51.460;7.158;2024-03-07T08:48:24;8.00;64.40
13569;DHT22;6856;51.460;7.158;2024-03-07T08:51:00;8.10;64.50
13569;DHT22;6856;51.460;7.158;2024-03-07T08:53:35;8.20;64.50
13569;DHT22;6856;51.460;7.158;2024-03-07T08:56:10;8.20;64.30
13569;DHT22;6856;51.460;7.158;2024-03-07T08:58:45;8.20;64.30
13569;DHT22;6856;51.460;7.158;2024-03-07T09:01:27;8.30;64.10
13569;DHT22;6856;51.460;7.158;2024-03-07T09:04:04;8.40;64.00
13569;DHT22;6856;51.460;7.158;2024-03-07T09:06:39;8.30;63.70
13569;DHT22;6856;51.460;7.158;2024-03-07T09:09:13;8.30;63.30
13569;DHT22;6856;51.460;7.158;2024-03-07T09:11:50;8.40;63.30
13569;DHT22;6856;51.460;7.158;2024-03-07T09:14:24;8.40;63.20
13569;DHT22;6856;51.460;7.158;2024-03-07T09:16:58;8.40;63.30
13569;DHT22;6856;51.460;7.158;2024-03-07T09:19:37;8.40;63.30
13569;DHT22;6856;51.460;7.158;2024-03-07T09:22:12;8.40;63.10
13569;DHT22;6856;51.460;7.158;2024-03-07T09:24:48;8.40;63.10
13569;DHT22;6856;51.460;7.158;2024-03-07T09:27:26;8.40;63.30
13569;DHT22;6856;51.460;7.158;2024-03-07T09:30:02;8.50;63.00
13569;DHT22;6856;51.460;7.158;2024-03-07T09:32:39;8.50;63.00
13569;DHT22;6856;51.460;7.158;2024-03-07T09:35:14;8.50;63.00
13569;DHT22;6856;51.460;7.158;2024-03-07T09:37:51;8.60;63.10
13569;DHT22;6856;51.460;7.158;2024-03-07T09:40:27;8.60;63.20
13569;DHT22;6856;51.460;7.158;2024-03-07T09:43:07;8.70;63.30
13569;DHT22;6856;51.460;7.158;2024-03-07T09:45:43;8.80;63.20
13569;DHT22;6856;51.460;7.158;2024-03-07T09:48:21;8.80;62.90
13569;DHT22;6856;51.460;7.158;2024-03-07T09:51:02;8.90;62.80
13569;DHT22;6856;51.460;7.158;2024-03-07T09:53:41;8.90;62.70
13569;DHT22;6856;51.460;7.158;2024-03-07T09:56:19;9.00;62.80
13569;DHT22;6856;51.460;7.158;2024-03-07T09:58:58;9.10;62.60
13569;DHT22;6856;51.460;7.158;2024-03-07T10:01:38;9.10;62.30
13569;DHT22;6856;51.460;7.158;2024-03-07T10:04:15;9.20;61.90
13569;DHT22;6856;51.460;7.158;2024-03-07T10:06:56;9.30;61.70
13569;DHT22;6856;51.460;7.158;2024-03-07T10:09:32;9.30;61.40
13569;DHT22;6856;51.460;7.158;2024-03-07T10:12:10;9.40;61.20
13569;DHT22;6856;51.460;7.158;2024-03-07T10:14:49;9.60;61.10
13569;DHT22;6856;51.460;7.158;2024-03-07T10:17:24;9.50;60.90
13569;DHT22;6856;51.460;7.158;2024-03-07T10:19:59;9.50;60.70
13569;DHT22;6856;51.460;7.158;2024-03-07T10:22:33;9.60;60.60
13569;DHT22;6856;51.460;7.158;2024-03-07T10:25:09;9.60;60.40
13569;DHT22;6856;51.460;7.158;2024-03-07T10:27:43;9.60;60.10
13569;DHT22;6856;51.460;7.158;2024-03-07T10:30:21;9.80;60.20
13569;DHT22;6856;51.460;7.158;2024-03-07T10:32:57;9.70;60.00
13569;DHT22;6856;51.460;7.158;2024-03-07T10:35:34;9.80;60.10
13569;DHT22;6856;51.460;7.158;2024-03-07T10:38:08;9.80;60.00
13569;DHT22;6856;51.460;7.158;2024-03-07T10:40:53;10.00;60.20
13569;DHT22;6856;51.460;7.158;2024-03-07T10:43:29;10.00;60.50
13569;DHT22;6856;51.460;7.158;2024-03-07T10:46:10;10.00;60.60
13569;DHT22;6856;51.460;7.158;2024-03-07T10:48:52;10.10;60.60
13569;DHT22;6856;51.460;7.158;2024-03-07T10:51:32;10.20;60.60
13569;DHT22;6856;51.460;7.158;2024-03-07T10:54:19;10.40;60.80
13569;DHT22;6856;51.460;7.158;2024-03-07T10:57:12;10.50;60.50
13569;DHT22;6856;51.460;7.158;2024-03-07T10:59:57;10.60;60.50
13569;DHT22;6856;51.460;7.158;2024-03-07T11:02:46;10.80;60.40
13569;DHT22;6856;51.460;7.158;2024-03-07T11:05:25;10.90;60.00
13569;DHT22;6856;51.460;7.158;2024-03-07T11:08:03;11.20;60.00
13569;DHT22;6856;51.460;7.158;2024-03-07T11:10:44;11.10;59.70
13569;DHT22;6856;51.460;7.158;2024-03-07T11:13:21;11.40;59.50
13569;DHT22;6856;51.460;7.158;2024-03-07T11:15:56;11.40;59.50
13569;DHT22;6856;51.460;7.158;2024-03-07T11:18:32;11.50;59.70
13569;DHT22;6856;51.460;7.158;2024-03-07T11:21:06;11.60;60.10
13569;DHT22;6856;51.460;7.158;2024-03-07T11:23:45;11.70;59.90
13569;DHT22;6856;51.460;7.158;2024-03-07T11:26:18;11.90;59.30
13569;DHT22;6856;51.460;7.158;2024-03-07T11:28:54;12.00;59.10
13569;DHT22;6856;51.460;7.158;2024-03-07T11:31:31;12.10;59.00
13569;DHT22;6856;51.460;7.158;2024-03-07T11:34:12;12.40;59.00
13569;DHT22;6856;51.460;7.158;2024-03-07T11:36:48;12.40;58.60
13569;DHT22;6856;51.460;7.158;2024-03-07T11:39:39;12.50;58.60
13569;DHT22;6856;51.460;7.158;2024-03-07T11:42:27;12.60;58.10
13569;DHT22;6856;51.460;7.158;2024-03-07T11:45:10;12.70;58.00
13569;DHT22;6856;51.460;7.158;2024-03-07T11:47:53;12.90;58.00
13569;DHT22;6856;51.460;7.158;2024-03-07T11:50:33;13.00;58.00
13569;DHT22;6856;51.460;7.158;2024-03-07T11:53:09;13.10;57.80
13569;DHT22;6856;51.460;7.158;2024-03-07T11:55:44;13.20;57.40
13569;DHT22;6856;51.460;7.158;2024-03-07T11:58:19;13.30;57.50
13569;DHT22;6856;51.460;7.158;2024-03-07T12:00:56;13.40;57.40
13569;DHT22;6856;51.460;7.158;2024-03-07T12:03:30;13.50;57.10
13569;DHT22;6856;51.460;7.158;2024-03-07T12:06:07;13.60;57.10
13569;DHT22;6856;51.460;7.158;2024-03-07T12:08:45;13.70;56.90
13569;DHT22;6856;51.460;7.158;2024-03-07T12:11:19;13.70;56.60
13569;DHT22;6856;51.460;7.158;2024-03-07T12:13:53;13.80;56.60
13569;DHT22;6856;51.460;7.158;2024-03-07T12:16:29;13.90;56.60
13569;DHT22;6856;51.460;7.158;2024-03-07T12:19:04;14.00;56.50
13569;DHT22;6856;51.460;7.158;2024-03-07T12:21:38;14.00;55.90
13569;DHT22;6856;51.460;7.158;2024-03-07T12:24:12;14.10;55.50
13569;DHT22;6856;51.460;7.158;2024-03-07T12:26:48;14.00;55.20
13569;DHT22;6856;51.460;7.158;2024-03-07T12:29:25;14.00;55.00
13569;DHT22;6856;51.460;7.158;2024-03-07T12:32:02;13.90;54.90
13569;DHT22;6856;51.460;7.158;2024-03-07T12:34:38;13.90;55.20
13569;DHT22;6856;51.460;7.158;2024-03-07T12:37:13;13.80;55.20
13569;DHT22;6856;51.460;7.158;2024-03-07T12:39:49;13.80;55.50
13569;DHT22;6856;51.460;7.158;2024-03-07T12:42:33;13.80;55.50
13569;DHT22;6856;51.460;7.158;2024-03-07T12:45:10;13.80;55.30
13569;DHT22;6856;51.460;7.158;2024-03-07T12:47:53;13.80;55.20
13569;DHT22;6856;51.460;7.158;2024-03-07T12:50:28;13.70;55.00
13569;DHT22;6856;51.460;7.158;2024-03-07T12:53:03;13.70;54.80
13569;DHT22;6856;51.460;7.158;2024-03-07T12:55:38;13.60;54.60
13569;DHT22;6856;51.460;7.158;2024-03-07T12:58:14;13.60;54.70
13569;DHT22;6856;51.460;7.158;2024-03-07T13:00:50;13.50;54.70
13569;DHT22;6856;51.460;7.158;2024-03-07T13:03:26;13.40;54.80
13569;DHT22;6856;51.460;7.158;2024-03-07T13:06:03;13.30;55.00
13569;DHT22;6856;51.460;7.158;2024-03-07T13:08:38;13.30;55.20
13569;DHT22;6856;51.460;7.158;2024-03-07T13:11:15;13.30;55.20
13569;DHT22;6856;51.460;7.158;2024-03-07T13:13:50;13.20;55.10
13569;DHT22;6856;51.460;7.158;2024-03-07T13:16:25;13.20;55.10
13569;DHT22;6856;51.460;7.158;2024-03-07T13:19:04;13.20;55.10
13569;DHT22;6856;51.460;7.158;2024-03-07T13:21:38;13.10;55.10
13569;DHT22;6856;51.460;7.158;2024-03-07T13:24:12;13.10;55.20
13569;DHT22;6856;51.460;7.158;2024-03-07T13:26:46;13.00;55.30
13569;DHT22;6856;51.460;7.158;2024-03-07T13:29:21;13.00;55.50
13569;DHT22;6856;51.460;7.158;2024-03-07T13:31:57;13.00;55.30
13569;DHT22;6856;51.460;7.158;2024-03-07T13:34:33;13.00;55.40
13569;DHT22;6856;51.460;7.158;2024-03-07T13:37:07;13.00;55.30
13569;DHT22;6856;51.460;7.158;2024-03-07T13:39:46;13.00;55.40
13569;DHT22;6856;51.460;7.158;2024-03-07T13:42:30;12.90;55.10
13569;DHT22;6856;51.460;7.158;2024-03-07T13:45:08;12.90;55.20
13569;DHT22;6856;51.460;7.158;2024-03-07T13:47:45;12.90;55.00
13569;DHT22;6856;51.460;7.158;2024-03-07T13:50:26;12.80;55.10
13569;DHT22;6856;51.460;7.158;2024-03-07T13:53:27;12.80;55.20
13569;DHT22;6856;51.460;7.158;2024-03-07T13:56:28;12.80;55.20
13569;DHT22;6856;51.460;7.158;2024-03-07T13:59:52;12.80;55.10
13569;DHT22;6856;51.460;7.158;2024-03-07T14:03:13;12.80;55.10
13569;DHT22;6856;51.460;7.158;2024-03-07T14:06:09;12.90;55.20
13569;DHT22;6856;51.460;7.158;2024-03-07T14:12:40;12.80;55.00
13569;DHT22;6856;51.460;7.158;2024-03-07T14:15:55;12.80;55.00
13569;DHT22;6856;51.460;7.158;2024-03-07T14:22:30;12.80;54.90
13569;DHT22;6856;51.460;7.158;2024-03-07T14:25:49;12.80;55.00
13569;DHT22;6856;51.460;7.158;2024-03-07T14:29:01;12.80;54.80
13569;DHT22;6856;51.460;7.158;2024-03-07T14:31:47;12.80;54.70
13569;DHT22;6856;51.460;7.158;2024-03-07T14:34:33;12.80;54.70
13569;DHT22;6856;51.460;7.158;2024-03-07T14:37:23;12.80;54.50
13569;DHT22;6856;51.460;7.158;2024-03-07T14:40:08;12.70;54.30
13569;DHT22;6856;51.460;7.158;2024-03-07T14:42:46;12.70;54.40
13569;DHT22;6856;51.460;7.158;2024-03-07T14:45:25;12.70;54.60
13569;DHT22;6856;51.460;7.158;2024-03-07T14:48:04;12.80;54.60
13569;DHT22;6856;51.460;7.158;2024-03-07T14:50:43;12.90;54.60
13569;DHT22;6856;51.460;7.158;2024-03-07T14:53:21;13.00;54.30
13569;DHT22;6856;51.460;7.158;2024-03-07T14:55:55;13.10;53.80
13569;DHT22;6856;51.460;7.158;2024-03-07T14:58:30;13.20;53.40
13569;DHT22;6856;51.460;7.158;2024-03-07T15:01:05;13.20;52.90
13569;DHT22;6856;51.460;7.158;2024-03-07T15:03:40;13.30;52.70
13569;DHT22;6856;51.460;7.158;2024-03-07T15:06:19;13.30;52.60
13569;DHT22;6856;51.460;7.158;2024-03-07T15:08:56;13.30;52.30
13569;DHT22;6856;51.460;7.158;2024-03-07T15:11:33;13.10;51.90
13569;DHT22;6856;51.460;7.158;2024-03-07T15:14:10;13.20;52.10
13569;DHT22;6856;51.460;7.158;2024-03-07T15:16:44;13.20;52.20
13569;DHT22;6856;51.460;7.158;2024-03-07T15:19:19;13.10;52.10
13569;DHT22;6856;51.460;7.158;2024-03-07T15:21:53;13.10;52.10
13569;DHT22;6856;51.460;7.158;2024-03-07T15:24:29;13.00;51.90
13569;DHT22;6856;51.460;7.158;2024-03-07T15:27:03;12.90;52.10
13569;DHT22;6856;51.460;7.158;2024-03-07T15:29:39;12.90;52.10
13569;DHT22;6856;51.460;7.158;2024-03-07T15:32:13;12.80;52.10
13569;DHT22;6856;51.460;7.158;2024-03-07T15:34:49;12.80;52.30
13569;DHT22;6856;51.460;7.158;2024-03-07T15:37:25;12.70;52.40
13569;DHT22;6856;51.460;7.158;2024-03-07T15:40:06;12.70;52.60
13569;DHT22;6856;51.460;7.158;2024-03-07T15:42:46;12.60;52.80
13569;DHT22;6856;51.460;7.158;2024-03-07T15:45:24;12.60;53.00
13569;DHT22;6856;51.460;7.158;2024-03-07T15:47:59;12.60;53.20
13569;DHT22;6856;51.460;7.158;2024-03-07T15:50:37;12.60;53.20
13569;DHT22;6856;51.460;7.158;2024-03-07T15:53:11;12.60;53.40
13569;DHT22;6856;51.460;7.158;2024-03-07T15:55:47;12.60;53.30
13569;DHT22;6856;51.460;7.158;2024-03-07T15:58:22;12.60;53.30
13569;DHT22;6856;51.460;7.158;2024-03-07T16:00:56;12.60;53.30
13569;DHT22;6856;51.460;7.158;2024-03-07T16:03:30;12.60;53.40
13569;DHT22;6856;51.460;7.158;2024-03-07T16:06:04;12.50;53.30
13569;DHT22;6856;51.460;7.158;2024-03-07T16:08:41;12.50;53.20
13569;DHT22;6856;51.460;7.158;2024-03-07T16:11:20;12.50;53.30
13569;DHT22;6856;51.460;7.158;2024-03-07T16:13:56;12.50;53.40
13569;DHT22;6856;51.460;7.158;2024-03-07T16:16:32;12.40;53.40
13569;DHT22;6856;51.460;7.158;2024-03-07T16:19:06;12.40;53.40
13569;DHT22;6856;51.460;7.158;2024-03-07T16:21:45;12.30;53.40
13569;DHT22;6856;51.460;7.158;2024-03-07T16:24:19;12.30;53.60
13569;DHT22;6856;51.460;7.158;2024-03-07T16:26:55;12.30;53.60
13569;DHT22;6856;51.460;7.158;2024-03-07T16:29:29;12.30;53.70
13569;DHT22;6856;51.460;7.158;2024-03-07T16:32:03;12.30;53.80
13569;DHT22;6856;51.460;7.158;2024-03-07T16:34:38;12.20;53.90
13569;DHT22;6856;51.460;7.158;2024-03-07T16:37:16;12.20;54.50
13569;DHT22;6856;51.460;7.158;2024-03-07T16:39:50;12.20;53.90
13569;DHT22;6856;51.460;7.158;2024-03-07T16:42:25;12.20;53.80
13569;DHT22;6856;51.460;7.158;2024-03-07T16:45:00;12.20;53.70
13569;DHT22;6856;51.460;7.158;2024-03-07T16:47:39;12.20;53.70
13569;DHT22;6856;51.460;7.158;2024-03-07T16:50:14;12.20;53.80
13569;DHT22;6856;51.460;7.158;2024-03-07T16:53:14;12.20;53.90
13569;DHT22;6856;51.460;7.158;2024-03-07T16:55:48;12.10;53.80
13569;DHT22;6856;51.460;7.158;2024-03-07T16:58:24;12.10;53.80
13569;DHT22;6856;51.460;7.158;2024-03-07T17:00:59;12.10;53.80
13569;DHT22;6856;51.460;7.158;2024-03-07T17:03:33;12.00;53.90
13569;DHT22;6856;51.460;7.158;2024-03-07T17:06:09;12.00;53.80